sensor_id;sensor_type;location;lat;lon;timestamp;temperature;humidity
26186;DHT22;20067;48.764;9.176;2023-04-15T00:00:29;9.00;78.20
26186;DHT22;20067;48.764;9.176;2023-04-15T00:02:55;9.00;77.80
26186;DHT22;20067;48.764;9.176;2023-04-15T00:05:21;9.00;78.20
26186;DHT22;20067;48.764;9.176;2023-04-15T00:07:46;9.00;78.10
26186;DHT22;20067;48.764;9.176;2023-04-15T00:10:12;9.00;78.10
26186;DHT22;20067;48.764;9.176;2023-04-15T00:12:39;9.00;78.30
26186;DHT22;20067;48.764;9.176;2023-04-15T00:15:07;8.90;78.50
26186;DHT22;20067;48.764;9.176;2023-04-15T00:17:33;8.90;78.70
26186;DHT22;20067;48.764;9.176;2023-04-15T00:19:59;8.80;78.70
26186;DHT22;20067;48.764;9.176;2023-04-15T00:22:26;8.80;78.70
26186;DHT22;20067;48.764;9.176;2023-04-15T00:24:52;8.80;78.50
26186;DHT22;20067;48.764;9.176;2023-04-15T00:27:18;8.80;78.50
26186;DHT22;20067;48.764;9.176;2023-04-15T00:29:44;8.80;78.60
26186;DHT22;20067;48.764;9.176;2023-04-15T00:32:10;8.80;79.00
26186;DHT22;20067;48.764;9.176;2023-04-15T00:34:35;8.70;79.30
26186;DHT22;20067;48.764;9.176;2023-04-15T00:37:01;8.70;78.90
26186;DHT22;20067;48.764;9.176;2023-04-15T00:39:27;8.70;78.80
26186;DHT22;20067;48.764;9.176;2023-04-15T00:41:53;8.70;78.40
26186;DHT22;20067;48.764;9.176;2023-04-15T00:44:19;8.80;78.60
26186;DHT22;20067;48.764;9.176;2023-04-15T00:46:46;8.70;78.90
26186;DHT22;20067;48.764;9.176;2023-04-15T00:49:13;8.70;79.00
26186;DHT22;20067;48.764;9.176;2023-04-15T00:51:38;8.60;79.30
26186;DHT22;20067;48.764;9.176;2023-04-15T00:54:04;8.50;79.50
26186;DHT22;20067;48.764;9.176;2023-04-15T00:56:34;8.40;79.50
26186;DHT22;20067;48.764;9.176;2023-04-15T00:59:00;8.30;80.30
26186;DHT22;20067;48.764;9.176;2023-04-15T01:01:26;8.30;79.70
26186;DHT22;20067;48.764;9.176;2023-04-15T01:03:55;8.30;80.30
26186;DHT22;20067;48.764;9.176;2023-04-15T01:06:20;8.30;80.10
26186;DHT22;20067;48.764;9.176;2023-04-15T01:08:46;8.40;79.80
26186;DHT22;20067;48.764;9.176;2023-04-15T01:11:12;8.40;79.80
26186;DHT22;20067;48.764;9.176;2023-04-15T01:13:38;8.40;79.70
26186;DHT22;20067;48.764;9.176;2023-04-15T01:16:04;8.30;79.90
26186;DHT22;20067;48.764;9.176;2023-04-15T01:18:30;8.30;80.10
26186;DHT22;20067;48.764;9.176;2023-04-15T01:20:56;8.40;79.80
26186;DHT22;20067;48.764;9.176;2023-04-15T01:23:22;8.40;79.60
26186;DHT22;20067;48.764;9.176;2023-04-15T01:25:49;8.40;79.80
26186;DHT22;20067;48.764;9.176;2023-04-15T01:28:15;8.40;80.00
26186;DHT22;20067;48.764;9.176;2023-04-15T01:30:40;8.30;80.50
26186;DHT22;20067;48.764;9.176;2023-04-15T01:33:06;8.10;80.80
26186;DHT22;20067;48.764;9.176;2023-04-15T01:35:32;8.20;80.70
26186;DHT22;20067;48.764;9.176;2023-04-15T01:38:08;8.20;80.50
26186;DHT22;20067;48.764;9.176;2023-04-15T01:40:34;8.20;80.30
26186;DHT22;20067;48.764;9.176;2023-04-15T01:43:01;8.10;80.50
26186;DHT22;20067;48.764;9.176;2023-04-15T01:45:27;8.10;80.50
26186;DHT22;20067;48.764;9.176;2023-04-15T01:47:52;8.10;80.50
26186;DHT22;20067;48.764;9.176;2023-04-15T01:50:18;8.10;80.50
26186;DHT22;20067;48.764;9.176;2023-04-15T01:52:45;8.10;80.50
26186;DHT22;20067;48.764;9.176;2023-04-15T01:55:11;8.10;80.10
26186;DHT22;20067;48.764;9.176;2023-04-15T01:57:37;8.20;80.30
26186;DHT22;20067;48.764;9.176;2023-04-15T02:00:03;8.10;80.60
26186;DHT22;20067;48.764;9.176;2023-04-15T02:02:29;8.10;80.50
26186;DHT22;20067;48.764;9.176;2023-04-15T02:04:55;8.00;80.60
26186;DHT22;20067;48.764;9.176;2023-04-15T02:07:20;8.10;80.60
26186;DHT22;20067;48.764;9.176;2023-04-15T02:09:46;8.10;80.60
26186;DHT22;20067;48.764;9.176;2023-04-15T02:12:12;8.10;80.60
26186;DHT22;20067;48.764;9.176;2023-04-15T02:14:38;8.00;80.60
26186;DHT22;20067;48.764;9.176;2023-04-15T02:17:03;8.00;80.70
26186;DHT22;20067;48.764;9.176;2023-04-15T02:19:35;7.90;80.70
26186;DHT22;20067;48.764;9.176;2023-04-15T02:22:01;7.90;80.80
26186;DHT22;20067;48.764;9.176;2023-04-15T02:24:28;7.90;80.90
26186;DHT22;20067;48.764;9.176;2023-04-15T02:26:53;7.80;80.90
26186;DHT22;20067;48.764;9.176;2023-04-15T02:29:19;7.80;81.10
26186;DHT22;20067;48.764;9.176;2023-04-15T02:31:45;7.70;81.30
26186;DHT22;20067;48.764;9.176;2023-04-15T02:34:10;7.70;81.20
26186;DHT22;20067;48.764;9.176;2023-04-15T02:36:36;7.80;81.10
26186;DHT22;20067;48.764;9.176;2023-04-15T02:39:02;7.80;81.20
26186;DHT22;20067;48.764;9.176;2023-04-15T02:41:28;7.70;81.30
26186;DHT22;20067;48.764;9.176;2023-04-15T02:43:54;7.70;81.50
26186;DHT22;20067;48.764;9.176;2023-04-15T02:46:21;7.60;81.50
26186;DHT22;20067;48.764;9.176;2023-04-15T02:48:47;7.50;82.00
26186;DHT22;20067;48.764;9.176;2023-04-15T02:51:17;7.50;81.80
26186;DHT22;20067;48.764;9.176;2023-04-15T02:53:47;7.60;81.60
26186;DHT22;20067;48.764;9.176;2023-04-15T02:56:13;7.60;81.80
26186;DHT22;20067;48.764;9.176;2023-04-15T02:58:40;7.60;81.60
26186;DHT22;20067;48.764;9.176;2023-04-15T03:01:07;7.60;81.60
26186;DHT22;20067;48.764;9.176;2023-04-15T03:03:33;7.60;81.50
26186;DHT22;20067;48.764;9.176;2023-04-15T03:05:59;7.70;81.60
26186;DHT22;20067;48.764;9.176;2023-04-15T03:08:25;7.70;81.30
26186;DHT22;20067;48.764;9.176;2023-04-15T03:10:51;7.70;81.40
26186;DHT22;20067;48.764;9.176;2023-04-15T03:13:18;7.70;81.60
26186;DHT22;20067;48.764;9.176;2023-04-15T03:15:47;7.60;81.70
26186;DHT22;20067;48.764;9.176;2023-04-15T03:18:13;7.60;81.70
26186;DHT22;20067;48.764;9.176;2023-04-15T03:20:38;7.60;81.50
26186;DHT22;20067;48.764;9.176;2023-04-15T03:23:04;7.50;81.70
26186;DHT22;20067;48.764;9.176;2023-04-15T03:25:30;7.50;81.80
26186;DHT22;20067;48.764;9.176;2023-04-15T03:27:55;7.50;81.70
26186;DHT22;20067;48.764;9.176;2023-04-15T03:30:21;7.50;81.60
26186;DHT22;20067;48.764;9.176;2023-04-15T03:32:47;7.40;81.80
26186;DHT22;20067;48.764;9.176;2023-04-15T03:35:12;7.40;82.30
26186;DHT22;20067;48.764;9.176;2023-04-15T03:37:38;7.30;82.60
26186;DHT22;20067;48.764;9.176;2023-04-15T03:40:04;7.30;82.60
26186;DHT22;20067;48.764;9.176;2023-04-15T03:42:30;7.30;82.30
26186;DHT22;20067;48.764;9.176;2023-04-15T03:44:55;7.20;82.80
26186;DHT22;20067;48.764;9.176;2023-04-15T03:47:21;7.30;82.50
26186;DHT22;20067;48.764;9.176;2023-04-15T03:49:47;7.30;82.50
26186;DHT22;20067;48.764;9.176;2023-04-15T03:52:12;7.30;82.90
26186;DHT22;20067;48.764;9.176;2023-04-15T03:54:38;7.10;83.30
26186;DHT22;20067;48.764;9.176;2023-04-15T03:57:03;7.00;83.50
26186;DHT22;20067;48.764;9.176;2023-04-15T03:59:29;7.10;83.40
26186;DHT22;20067;48.764;9.176;2023-04-15T04:01:54;6.90;83.80
26186;DHT22;20067;48.764;9.176;2023-04-15T04:04:20;7.00;83.70
26186;DHT22;20067;48.764;9.176;2023-04-15T04:06:46;7.10;83.00
26186;DHT22;20067;48.764;9.176;2023-04-15T04:09:11;7.10;82.80
26186;DHT22;20067;48.764;9.176;2023-04-15T04:11:37;7.20;82.30
26186;DHT22;20067;48.764;9.176;2023-04-15T04:14:02;7.20;82.50
26186;DHT22;20067;48.764;9.176;2023-04-15T04:16:28;7.20;82.80
26186;DHT22;20067;48.764;9.176;2023-04-15T04:18:54;7.20;82.80
26186;DHT22;20067;48.764;9.176;2023-04-15T04:21:19;7.20;82.70
26186;DHT22;20067;48.764;9.176;2023-04-15T04:23:45;7.20;83.00
26186;DHT22;20067;48.764;9.176;2023-04-15T04:26:11;7.20;82.80
26186;DHT22;20067;48.764;9.176;2023-04-15T04:28:37;7.10;82.80
26186;DHT22;20067;48.764;9.176;2023-04-15T04:31:05;7.20;82.50
26186;DHT22;20067;48.764;9.176;2023-04-15T04:33:31;7.20;82.30
26186;DHT22;20067;48.764;9.176;2023-04-15T04:35:57;7.20;82.20
26186;DHT22;20067;48.764;9.176;2023-04-15T04:38:23;7.30;81.90
26186;DHT22;20067;48.764;9.176;2023-04-15T04:40:48;7.30;81.90
26186;DHT22;20067;48.764;9.176;2023-04-15T04:43:14;7.30;82.00
26186;DHT22;20067;48.764;9.176;2023-04-15T04:45:40;7.30;81.70
26186;DHT22;20067;48.764;9.176;2023-04-15T04:48:06;7.30;81.80
26186;DHT22;20067;48.764;9.176;2023-04-15T04:50:33;7.30;82.00
26186;DHT22;20067;48.764;9.176;2023-04-15T04:52:59;7.20;82.20
26186;DHT22;20067;48.764;9.176;2023-04-15T04:55:25;7.10;82.20
26186;DHT22;20067;48.764;9.176;2023-04-15T04:57:51;7.10;82.20
26186;DHT22;20067;48.764;9.176;2023-04-15T05:00:17;7.00;82.50
26186;DHT22;20067;48.764;9.176;2023-04-15T05:02:43;7.00;82.50
26186;DHT22;20067;48.764;9.176;2023-04-15T05:05:09;7.00;82.80
26186;DHT22;20067;48.764;9.176;2023-04-15T05:07:36;7.00;83.10
26186;DHT22;20067;48.764;9.176;2023-04-15T05:10:03;6.90;83.30
26186;DHT22;20067;48.764;9.176;2023-04-15T05:12:28;6.90;83.60
26186;DHT22;20067;48.764;9.176;2023-04-15T05:14:54;6.80;83.60
26186;DHT22;20067;48.764;9.176;2023-04-15T05:17:20;6.90;83.60
26186;DHT22;20067;48.764;9.176;2023-04-15T05:19:46;6.90;83.40
26186;DHT22;20067;48.764;9.176;2023-04-15T05:22:11;6.90;83.60
26186;DHT22;20067;48.764;9.176;2023-04-15T05:24:37;6.80;84.20
26186;DHT22;20067;48.764;9.176;2023-04-15T05:27:03;6.90;83.90
26186;DHT22;20067;48.764;9.176;2023-04-15T05:29:29;6.90;83.60
26186;DHT22;20067;48.764;9.176;2023-04-15T05:31:55;7.00;83.30
26186;DHT22;20067;48.764;9.176;2023-04-15T05:34:20;7.10;83.30
26186;DHT22;20067;48.764;9.176;2023-04-15T05:36:46;7.00;83.40
26186;DHT22;20067;48.764;9.176;2023-04-15T05:39:12;7.00;83.20
26186;DHT22;20067;48.764;9.176;2023-04-15T05:41:37;7.00;83.60
26186;DHT22;20067;48.764;9.176;2023-04-15T05:44:03;7.00;83.80
26186;DHT22;20067;48.764;9.176;2023-04-15T05:46:29;7.00;83.70
26186;DHT22;20067;48.764;9.176;2023-04-15T05:48:54;7.00;83.60
26186;DHT22;20067;48.764;9.176;2023-04-15T05:51:20;7.10;83.70
26186;DHT22;20067;48.764;9.176;2023-04-15T05:53:46;7.20;83.20
26186;DHT22;20067;48.764;9.176;2023-04-15T05:56:11;7.30;83.00
26186;DHT22;20067;48.764;9.176;2023-04-15T05:58:37;7.40;83.10
26186;DHT22;20067;48.764;9.176;2023-04-15T06:01:03;7.40;83.00
26186;DHT22;20067;48.764;9.176;2023-04-15T06:03:28;7.60;82.70
26186;DHT22;20067;48.764;9.176;2023-04-15T06:05:54;7.70;82.40
26186;DHT22;20067;48.764;9.176;2023-04-15T06:08:20;7.80;82.40
26186;DHT22;20067;48.764;9.176;2023-04-15T06:10:46;7.90;82.40
26186;DHT22;20067;48.764;9.176;2023-04-15T06:13:12;8.00;82.20
26186;DHT22;20067;48.764;9.176;2023-04-15T06:15:37;8.10;81.80
26186;DHT22;20067;48.764;9.176;2023-04-15T06:18:03;8.30;81.80
26186;DHT22;20067;48.764;9.176;2023-04-15T06:20:29;8.40;81.30
26186;DHT22;20067;48.764;9.176;2023-04-15T06:22:55;8.60;80.50
26186;DHT22;20067;48.764;9.176;2023-04-15T06:25:21;8.70;80.20
26186;DHT22;20067;48.764;9.176;2023-04-15T06:27:47;8.80;79.80
26186;DHT22;20067;48.764;9.176;2023-04-15T06:30:13;8.90;79.90
26186;DHT22;20067;48.764;9.176;2023-04-15T06:32:39;9.00;79.70
26186;DHT22;20067;48.764;9.176;2023-04-15T06:35:05;9.10;79.60
26186;DHT22;20067;48.764;9.176;2023-04-15T06:37:30;9.30;79.20
26186;DHT22;20067;48.764;9.176;2023-04-15T06:39:57;9.50;78.90
26186;DHT22;20067;48.764;9.176;2023-04-15T06:42:22;9.60;78.70
26186;DHT22;20067;48.764;9.176;2023-04-15T06:44:48;9.40;79.00
26186;DHT22;20067;48.764;9.176;2023-04-15T06:47:14;9.70;78.20
26186;DHT22;20067;48.764;9.176;2023-04-15T06:49:40;9.80;77.60
26186;DHT22;20067;48.764;9.176;2023-04-15T06:52:07;9.90;77.20
26186;DHT22;20067;48.764;9.176;2023-04-15T06:54:33;9.60;77.80
26186;DHT22;20067;48.764;9.176;2023-04-15T06:56:59;9.60;77.80
26186;DHT22;20067;48.764;9.176;2023-04-15T06:59:25;9.60;77.90
26186;DHT22;20067;48.764;9.176;2023-04-15T07:01:51;9.50;78.50
26186;DHT22;20067;48.764;9.176;2023-04-15T07:04:17;8.90;80.20
26186;DHT22;20067;48.764;9.176;2023-04-15T07:06:42;9.20;80.30
26186;DHT22;20067;48.764;9.176;2023-04-15T07:09:09;9.50;79.30
26186;DHT22;20067;48.764;9.176;2023-04-15T07:11:35;9.80;78.70
26186;DHT22;20067;48.764;9.176;2023-04-15T07:14:00;10.00;78.00
26186;DHT22;20067;48.764;9.176;2023-04-15T07:16:26;10.20;77.50
26186;DHT22;20067;48.764;9.176;2023-04-15T07:18:52;10.30;77.30
26186;DHT22;20067;48.764;9.176;2023-04-15T07:21:18;10.30;77.30
26186;DHT22;20067;48.764;9.176;2023-04-15T07:23:44;10.50;77.00
26186;DHT22;20067;48.764;9.176;2023-04-15T07:26:09;10.90;76.30
26186;DHT22;20067;48.764;9.176;2023-04-15T07:28:35;11.00;75.40
26186;DHT22;20067;48.764;9.176;2023-04-15T07:31:01;11.50;74.30
26186;DHT22;20067;48.764;9.176;2023-04-15T07:33:26;11.80;73.60
26186;DHT22;20067;48.764;9.176;2023-04-15T07:35:52;12.20;72.70
26186;DHT22;20067;48.764;9.176;2023-04-15T07:38:18;13.10;70.80
26186;DHT22;20067;48.764;9.176;2023-04-15T07:40:45;13.70;68.80
26186;DHT22;20067;48.764;9.176;2023-04-15T07:43:10;14.30;67.30
26186;DHT22;20067;48.764;9.176;2023-04-15T07:45:37;14.60;65.90
26186;DHT22;20067;48.764;9.176;2023-04-15T07:48:03;14.40;66.40
26186;DHT22;20067;48.764;9.176;2023-04-15T07:50:30;14.40;66.00
26186;DHT22;20067;48.764;9.176;2023-04-15T07:52:55;13.60;67.30
26186;DHT22;20067;48.764;9.176;2023-04-15T07:55:22;12.80;68.90
26186;DHT22;20067;48.764;9.176;2023-04-15T07:57:48;12.50;70.70
26186;DHT22;20067;48.764;9.176;2023-04-15T08:00:15;12.10;71.10
26186;DHT22;20067;48.764;9.176;2023-04-15T08:02:41;12.00;72.30
26186;DHT22;20067;48.764;9.176;2023-04-15T08:05:08;12.00;71.60
26186;DHT22;20067;48.764;9.176;2023-04-15T08:07:36;12.40;71.20
26186;DHT22;20067;48.764;9.176;2023-04-15T08:10:02;12.60;70.70
26186;DHT22;20067;48.764;9.176;2023-04-15T08:12:27;13.10;70.00
26186;DHT22;20067;48.764;9.176;2023-04-15T08:14:54;14.10;67.70
26186;DHT22;20067;48.764;9.176;2023-04-15T08:17:19;14.20;66.80
26186;DHT22;20067;48.764;9.176;2023-04-15T08:19:45;14.10;66.90
26186;DHT22;20067;48.764;9.176;2023-04-15T08:22:12;16.30;65.30
26186;DHT22;20067;48.764;9.176;2023-04-15T08:24:38;18.30;59.40
26186;DHT22;20067;48.764;9.176;2023-04-15T08:27:04;19.00;57.40
26186;DHT22;20067;48.764;9.176;2023-04-15T08:29:31;19.90;56.20
26186;DHT22;20067;48.764;9.176;2023-04-15T08:31:58;20.60;54.40
26186;DHT22;20067;48.764;9.176;2023-04-15T08:34:25;20.30;53.60
26186;DHT22;20067;48.764;9.176;2023-04-15T08:36:50;20.00;54.50
26186;DHT22;20067;48.764;9.176;2023-04-15T08:39:17;20.70;53.30
26186;DHT22;20067;48.764;9.176;2023-04-15T08:41:46;21.50;52.00
26186;DHT22;20067;48.764;9.176;2023-04-15T08:44:13;22.40;49.90
26186;DHT22;20067;48.764;9.176;2023-04-15T08:46:40;22.90;49.50
26186;DHT22;20067;48.764;9.176;2023-04-15T08:49:09;23.20;48.20
26186;DHT22;20067;48.764;9.176;2023-04-15T08:51:36;23.20;48.00
26186;DHT22;20067;48.764;9.176;2023-04-15T08:54:03;23.50;47.50
26186;DHT22;20067;48.764;9.176;2023-04-15T08:56:30;24.20;47.80
26186;DHT22;20067;48.764;9.176;2023-04-15T08:58:59;25.10;45.30
26186;DHT22;20067;48.764;9.176;2023-04-15T09:01:25;25.70;45.50
26186;DHT22;20067;48.764;9.176;2023-04-15T09:03:51;25.60;43.00
26186;DHT22;20067;48.764;9.176;2023-04-15T09:06:19;23.80;46.10
26186;DHT22;20067;48.764;9.176;2023-04-15T09:08:46;24.70;45.90
26186;DHT22;20067;48.764;9.176;2023-04-15T09:11:12;25.10;44.40
26186;DHT22;20067;48.764;9.176;2023-04-15T09:13:38;25.10;45.50
26186;DHT22;20067;48.764;9.176;2023-04-15T09:16:06;25.80;44.70
26186;DHT22;20067;48.764;9.176;2023-04-15T09:18:34;25.80;43.60
26186;DHT22;20067;48.764;9.176;2023-04-15T09:21:10;26.10;43.10
26186;DHT22;20067;48.764;9.176;2023-04-15T09:23:38;26.40;42.70
26186;DHT22;20067;48.764;9.176;2023-04-15T09:26:04;25.90;42.70
26186;DHT22;20067;48.764;9.176;2023-04-15T09:28:30;25.10;42.90
26186;DHT22;20067;48.764;9.176;2023-04-15T09:30:57;20.90;48.70
26186;DHT22;20067;48.764;9.176;2023-04-15T09:33:23;20.40;51.20
26186;DHT22;20067;48.764;9.176;2023-04-15T09:36:03;19.40;53.50
26186;DHT22;20067;48.764;9.176;2023-04-15T09:38:30;19.60;54.10
26186;DHT22;20067;48.764;9.176;2023-04-15T09:40:57;20.80;51.20
26186;DHT22;20067;48.764;9.176;2023-04-15T09:43:37;20.30;51.30
26186;DHT22;20067;48.764;9.176;2023-04-15T09:46:06;20.00;51.10
26186;DHT22;20067;48.764;9.176;2023-04-15T09:48:31;20.10;51.40
26186;DHT22;20067;48.764;9.176;2023-04-15T09:50:58;19.90;51.80
26186;DHT22;20067;48.764;9.176;2023-04-15T09:53:25;18.40;53.30
26186;DHT22;20067;48.764;9.176;2023-04-15T09:55:52;16.60;56.50
26186;DHT22;20067;48.764;9.176;2023-04-15T09:58:26;16.40;57.80
26186;DHT22;20067;48.764;9.176;2023-04-15T10:00:54;16.50;57.30
26186;DHT22;20067;48.764;9.176;2023-04-15T10:03:22;16.10;58.10
26186;DHT22;20067;48.764;9.176;2023-04-15T10:05:50;16.20;58.20
26186;DHT22;20067;48.764;9.176;2023-04-15T10:08:17;16.20;57.60
26186;DHT22;20067;48.764;9.176;2023-04-15T10:10:45;16.50;58.30
26186;DHT22;20067;48.764;9.176;2023-04-15T10:13:13;16.40;58.40
26186;DHT22;20067;48.764;9.176;2023-04-15T10:15:42;16.30;58.40
26186;DHT22;20067;48.764;9.176;2023-04-15T10:18:09;16.50;57.60
26186;DHT22;20067;48.764;9.176;2023-04-15T10:20:36;16.40;58.20
26186;DHT22;20067;48.764;9.176;2023-04-15T10:23:02;16.20;58.40
26186;DHT22;20067;48.764;9.176;2023-04-15T10:25:29;15.90;57.70
26186;DHT22;20067;48.764;9.176;2023-04-15T10:27:56;15.60;59.30
26186;DHT22;20067;48.764;9.176;2023-04-15T10:30:22;15.30;58.20
26186;DHT22;20067;48.764;9.176;2023-04-15T10:32:49;15.40;59.40
26186;DHT22;20067;48.764;9.176;2023-04-15T10:35:15;15.90;59.20
26186;DHT22;20067;48.764;9.176;2023-04-15T10:37:41;16.60;58.60
26186;DHT22;20067;48.764;9.176;2023-04-15T10:40:30;16.80;57.00
26186;DHT22;20067;48.764;9.176;2023-04-15T10:43:00;17.30;57.30
26186;DHT22;20067;48.764;9.176;2023-04-15T10:45:36;17.70;55.80
26186;DHT22;20067;48.764;9.176;2023-04-15T10:48:04;17.90;55.40
26186;DHT22;20067;48.764;9.176;2023-04-15T10:50:31;17.80;55.80
26186;DHT22;20067;48.764;9.176;2023-04-15T10:52:58;18.00;55.30
26186;DHT22;20067;48.764;9.176;2023-04-15T10:55:25;18.30;55.30
26186;DHT22;20067;48.764;9.176;2023-04-15T10:57:52;18.00;56.00
26186;DHT22;20067;48.764;9.176;2023-04-15T11:00:20;17.10;57.10
26186;DHT22;20067;48.764;9.176;2023-04-15T11:02:57;16.60;57.70
26186;DHT22;20067;48.764;9.176;2023-04-15T11:08:14;15.90;58.80
26186;DHT22;20067;48.764;9.176;2023-04-15T11:15:58;15.00;61.10
26186;DHT22;20067;48.764;9.176;2023-04-15T11:18:27;15.00;61.30
26186;DHT22;20067;48.764;9.176;2023-04-15T11:20:57;14.90;61.50
26186;DHT22;20067;48.764;9.176;2023-04-15T11:23:39;14.70;62.40
26186;DHT22;20067;48.764;9.176;2023-04-15T11:26:09;15.00;62.20
26186;DHT22;20067;48.764;9.176;2023-04-15T11:28:40;16.10;60.60
26186;DHT22;20067;48.764;9.176;2023-04-15T11:31:08;17.30;58.50
26186;DHT22;20067;48.764;9.176;2023-04-15T11:33:35;17.90;56.10
26186;DHT22;20067;48.764;9.176;2023-04-15T11:36:01;18.30;53.20
26186;DHT22;20067;48.764;9.176;2023-04-15T11:38:28;17.90;52.70
26186;DHT22;20067;48.764;9.176;2023-04-15T11:40:54;18.10;53.70
26186;DHT22;20067;48.764;9.176;2023-04-15T11:43:21;18.00;54.40
26186;DHT22;20067;48.764;9.176;2023-04-15T11:46:01;17.70;55.00
26186;DHT22;20067;48.764;9.176;2023-04-15T11:48:32;17.70;56.20
26186;DHT22;20067;48.764;9.176;2023-04-15T11:51:05;17.60;56.30
26186;DHT22;20067;48.764;9.176;2023-04-15T11:53:45;17.30;57.10
26186;DHT22;20067;48.764;9.176;2023-04-15T11:56:22;16.60;59.00
26186;DHT22;20067;48.764;9.176;2023-04-15T11:58:51;16.00;61.10
26186;DHT22;20067;48.764;9.176;2023-04-15T12:01:18;15.70;61.60
26186;DHT22;20067;48.764;9.176;2023-04-15T12:03:47;15.40;61.80
26186;DHT22;20067;48.764;9.176;2023-04-15T12:06:19;15.50;62.10
26186;DHT22;20067;48.764;9.176;2023-04-15T12:11:26;15.80;62.10
26186;DHT22;20067;48.764;9.176;2023-04-15T12:14:05;15.90;61.10
26186;DHT22;20067;48.764;9.176;2023-04-15T12:16:33;16.00;60.90
26186;DHT22;20067;48.764;9.176;2023-04-15T12:19:00;16.10;60.70
26186;DHT22;20067;48.764;9.176;2023-04-15T12:21:37;16.10;61.30
26186;DHT22;20067;48.764;9.176;2023-04-15T12:24:07;16.00;59.50
26186;DHT22;20067;48.764;9.176;2023-04-15T12:26:36;15.80;59.20
26186;DHT22;20067;48.764;9.176;2023-04-15T12:29:07;15.70;59.20
26186;DHT22;20067;48.764;9.176;2023-04-15T12:31:36;15.80;59.60
26186;DHT22;20067;48.764;9.176;2023-04-15T12:34:05;15.80;60.40
26186;DHT22;20067;48.764;9.176;2023-04-15T12:36:32;15.10;63.70
26186;DHT22;20067;48.764;9.176;2023-04-15T12:39:02;14.60;66.30
26186;DHT22;20067;48.764;9.176;2023-04-15T12:41:28;13.60;70.80
26186;DHT22;20067;48.764;9.176;2023-04-15T12:43:54;13.40;72.40
26186;DHT22;20067;48.764;9.176;2023-04-15T12:46:20;13.10;72.90
26186;DHT22;20067;48.764;9.176;2023-04-15T12:48:46;12.50;75.10
26186;DHT22;20067;48.764;9.176;2023-04-15T12:51:12;12.20;77.60
26186;DHT22;20067;48.764;9.176;2023-04-15T12:53:38;12.00;81.70
26186;DHT22;20067;48.764;9.176;2023-04-15T12:56:03;12.00;82.10
26186;DHT22;20067;48.764;9.176;2023-04-15T12:58:29;12.20;81.20
26186;DHT22;20067;48.764;9.176;2023-04-15T13:00:55;12.20;80.60
26186;DHT22;20067;48.764;9.176;2023-04-15T13:03:21;11.80;81.90
26186;DHT22;20067;48.764;9.176;2023-04-15T13:05:47;11.80;81.10
26186;DHT22;20067;48.764;9.176;2023-04-15T13:08:13;11.90;81.00
26186;DHT22;20067;48.764;9.176;2023-04-15T13:10:38;11.90;80.70
26186;DHT22;20067;48.764;9.176;2023-04-15T13:13:04;12.10;79.60
26186;DHT22;20067;48.764;9.176;2023-04-15T13:15:30;12.20;79.00
26186;DHT22;20067;48.764;9.176;2023-04-15T13:17:55;12.60;76.90
26186;DHT22;20067;48.764;9.176;2023-04-15T13:20:21;13.20;75.10
26186;DHT22;20067;48.764;9.176;2023-04-15T13:22:47;13.50;72.00
26186;DHT22;20067;48.764;9.176;2023-04-15T13:25:13;13.40;72.50
26186;DHT22;20067;48.764;9.176;2023-04-15T13:27:38;13.60;70.60
26186;DHT22;20067;48.764;9.176;2023-04-15T13:30:05;13.80;69.80
26186;DHT22;20067;48.764;9.176;2023-04-15T13:32:31;13.70;69.70
26186;DHT22;20067;48.764;9.176;2023-04-15T13:34:57;13.80;69.40
26186;DHT22;20067;48.764;9.176;2023-04-15T13:37:27;14.00;68.70
26186;DHT22;20067;48.764;9.176;2023-04-15T13:39:53;13.90;68.40
26186;DHT22;20067;48.764;9.176;2023-04-15T13:42:19;13.70;68.40
26186;DHT22;20067;48.764;9.176;2023-04-15T13:44:45;13.80;68.40
26186;DHT22;20067;48.764;9.176;2023-04-15T13:47:11;13.90;68.50
26186;DHT22;20067;48.764;9.176;2023-04-15T13:49:37;14.20;66.70
26186;DHT22;20067;48.764;9.176;2023-04-15T13:52:03;14.30;64.40
26186;DHT22;20067;48.764;9.176;2023-04-15T13:54:28;14.20;63.10
26186;DHT22;20067;48.764;9.176;2023-04-15T13:56:54;14.30;61.90
26186;DHT22;20067;48.764;9.176;2023-04-15T13:59:21;14.20;60.40
26186;DHT22;20067;48.764;9.176;2023-04-15T14:01:47;14.10;60.20
26186;DHT22;20067;48.764;9.176;2023-04-15T14:04:13;14.20;60.30
26186;DHT22;20067;48.764;9.176;2023-04-15T14:06:38;14.20;60.00
26186;DHT22;20067;48.764;9.176;2023-04-15T14:09:04;14.10;59.60
26186;DHT22;20067;48.764;9.176;2023-04-15T14:11:29;14.00;57.20
26186;DHT22;20067;48.764;9.176;2023-04-15T14:13:55;13.80;57.90
26186;DHT22;20067;48.764;9.176;2023-04-15T14:16:21;13.60;59.00
26186;DHT22;20067;48.764;9.176;2023-04-15T14:18:47;13.60;58.50
26186;DHT22;20067;48.764;9.176;2023-04-15T14:21:12;13.70;59.60
26186;DHT22;20067;48.764;9.176;2023-04-15T14:23:38;13.60;58.20
26186;DHT22;20067;48.764;9.176;2023-04-15T14:26:04;13.40;58.90
26186;DHT22;20067;48.764;9.176;2023-04-15T14:28:29;13.50;59.00
26186;DHT22;20067;48.764;9.176;2023-04-15T14:30:56;13.50;58.00
26186;DHT22;20067;48.764;9.176;2023-04-15T14:33:22;13.30;58.00
26186;DHT22;20067;48.764;9.176;2023-04-15T14:35:48;13.20;58.50
26186;DHT22;20067;48.764;9.176;2023-04-15T14:38:14;13.30;59.00
26186;DHT22;20067;48.764;9.176;2023-04-15T14:40:40;13.40;59.40
26186;DHT22;20067;48.764;9.176;2023-04-15T14:43:05;13.30;59.50
26186;DHT22;20067;48.764;9.176;2023-04-15T14:45:31;13.20;59.60
26186;DHT22;20067;48.764;9.176;2023-04-15T14:47:58;13.10;60.30
26186;DHT22;20067;48.764;9.176;2023-04-15T14:50:24;13.10;60.50
26186;DHT22;20067;48.764;9.176;2023-04-15T14:52:49;12.90;61.00
26186;DHT22;20067;48.764;9.176;2023-04-15T14:55:15;13.00;61.60
26186;DHT22;20067;48.764;9.176;2023-04-15T14:57:41;12.90;61.40
26186;DHT22;20067;48.764;9.176;2023-04-15T15:00:08;12.80;62.60
26186;DHT22;20067;48.764;9.176;2023-04-15T15:02:34;12.70;62.70
26186;DHT22;20067;48.764;9.176;2023-04-15T15:05:01;12.70;63.30
26186;DHT22;20067;48.764;9.176;2023-04-15T15:07:27;12.50;64.00
26186;DHT22;20067;48.764;9.176;2023-04-15T15:09:53;12.40;64.60
26186;DHT22;20067;48.764;9.176;2023-04-15T15:12:19;12.30;65.60
26186;DHT22;20067;48.764;9.176;2023-04-15T15:14:47;12.20;66.20
26186;DHT22;20067;48.764;9.176;2023-04-15T15:17:13;12.00;66.70
26186;DHT22;20067;48.764;9.176;2023-04-15T15:19:39;12.00;67.30
26186;DHT22;20067;48.764;9.176;2023-04-15T15:22:04;12.10;67.70
26186;DHT22;20067;48.764;9.176;2023-04-15T15:24:30;12.10;67.70
26186;DHT22;20067;48.764;9.176;2023-04-15T15:26:56;12.00;68.30
26186;DHT22;20067;48.764;9.176;2023-04-15T15:29:22;12.10;68.30
26186;DHT22;20067;48.764;9.176;2023-04-15T15:31:48;11.90;68.90
26186;DHT22;20067;48.764;9.176;2023-04-15T15:34:14;12.00;69.00
26186;DHT22;20067;48.764;9.176;2023-04-15T15:36:40;12.00;69.00
26186;DHT22;20067;48.764;9.176;2023-04-15T15:39:06;12.00;69.10
26186;DHT22;20067;48.764;9.176;2023-04-15T15:41:32;12.10;68.90
26186;DHT22;20067;48.764;9.176;2023-04-15T15:43:57;12.10;69.60